Mount Pleasant, Ohio
Current Conditions -  °F | °C
As of 2:53 AM on Friday 31 Oct 2014 (Local Time) from KHLG Reporting Station
Overcast Overcast  
Wind Chill: 44°   Ceiling: 4800
Heat Index: 44°   Visibility: 10mi
Dew Point: 37°   Wind: 3mph
Humidity: 76%   Direction: 190°S
Pressure: 30"   Gusts: NA
Location:  40.18°N, 80.8°W
Report Text: KHLG 310653Z AUTO 19003KT 10SM OVC048 07/03 A3000 RMK AO2 SLP164 T00670028
Loading
Personal Weather Stations






























Interactive Weather Map
Tropical Storm Tracking
New forecast layout! Learn more

10-Day Weather Forecast

Advertisements
Track Severe Weather on mobile